sensor_id;sensor_type;location;lat;lon;timestamp;pressure;altitude;pressure_sealevel;temperature
33267;BMP180;19638;49.080;11.896;2023-05-07T00:03:40;96334.00;;;11.10
33267;BMP180;19638;49.080;11.896;2023-05-07T00:07:47;96332.00;;;11.00
33267;BMP180;19638;49.080;11.896;2023-05-07T00:11:54;96340.00;;;10.90
33267;BMP180;19638;49.080;11.896;2023-05-07T00:15:57;96348.00;;;10.90
33267;BMP180;19638;49.080;11.896;2023-05-07T00:20:06;96339.00;;;10.80
33267;BMP180;19638;49.080;11.896;2023-05-07T00:24:11;96327.00;;;10.80
33267;BMP180;19638;49.080;11.896;2023-05-07T00:28:14;96336.00;;;10.70
33267;BMP180;19638;49.080;11.896;2023-05-07T00:32:22;96335.00;;;10.70
33267;BMP180;19638;49.080;11.896;2023-05-07T00:36:29;96345.00;;;10.70
33267;BMP180;19638;49.080;11.896;2023-05-07T00:40:32;96337.00;;;10.70
33267;BMP180;19638;49.080;11.896;2023-05-07T00:44:39;96333.00;;;10.70
33267;BMP180;19638;49.080;11.896;2023-05-07T00:48:47;96337.00;;;10.70
33267;BMP180;19638;49.080;11.896;2023-05-07T00:52:52;96331.00;;;10.70
33267;BMP180;19638;49.080;11.896;2023-05-07T00:56:56;96334.00;;;10.70
33267;BMP180;19638;49.080;11.896;2023-05-07T01:00:59;96337.00;;;11.00
33267;BMP180;19638;49.080;11.896;2023-05-07T01:05:05;96335.00;;;11.30
33267;BMP180;19638;49.080;11.896;2023-05-07T01:09:12;96343.00;;;11.70
33267;BMP180;19638;49.080;11.896;2023-05-07T01:13:22;96335.00;;;12.00
33267;BMP180;19638;49.080;11.896;2023-05-07T01:17:29;96336.00;;;12.20
33267;BMP180;19638;49.080;11.896;2023-05-07T01:21:33;96340.00;;;12.40
33267;BMP180;19638;49.080;11.896;2023-05-07T01:25:39;96333.00;;;12.50
33267;BMP180;19638;49.080;11.896;2023-05-07T01:29:42;96332.00;;;12.50
33267;BMP180;19638;49.080;11.896;2023-05-07T01:33:46;96330.00;;;12.50
33267;BMP180;19638;49.080;11.896;2023-05-07T01:37:51;96329.00;;;12.70
33267;BMP180;19638;49.080;11.896;2023-05-07T01:41:56;96330.00;;;12.90
33267;BMP180;19638;49.080;11.896;2023-05-07T01:46:01;96329.00;;;13.10
33267;BMP180;19638;49.080;11.896;2023-05-07T01:50:09;96328.00;;;13.20
33267;BMP180;19638;49.080;11.896;2023-05-07T01:54:19;96341.00;;;13.30
33267;BMP180;19638;49.080;11.896;2023-05-07T02:03:38;96330.00;;;13.40
33267;BMP180;19638;49.080;11.896;2023-05-07T02:07:48;96334.00;;;13.40
33267;BMP180;19638;49.080;11.896;2023-05-07T02:11:59;96338.00;;;13.50
33267;BMP180;19638;49.080;11.896;2023-05-07T02:16:09;96336.00;;;13.40
33267;BMP180;19638;49.080;11.896;2023-05-07T02:20:19;96330.00;;;13.40
33267;BMP180;19638;49.080;11.896;2023-05-07T02:24:26;96328.00;;;13.40
33267;BMP180;19638;49.080;11.896;2023-05-07T02:28:33;96321.00;;;13.40
33267;BMP180;19638;49.080;11.896;2023-05-07T02:32:40;96333.00;;;13.30
33267;BMP180;19638;49.080;11.896;2023-05-07T02:36:46;96317.00;;;13.30
33267;BMP180;19638;49.080;11.896;2023-05-07T02:40:54;96319.00;;;13.20
33267;BMP180;19638;49.080;11.896;2023-05-07T02:45:05;96312.00;;;13.10
33267;BMP180;19638;49.080;11.896;2023-05-07T02:49:09;96314.00;;;13.10
33267;BMP180;19638;49.080;11.896;2023-05-07T02:53:15;96306.00;;;13.00
33267;BMP180;19638;49.080;11.896;2023-05-07T02:57:18;96314.00;;;12.90
33267;BMP180;19638;49.080;11.896;2023-05-07T03:01:23;96315.00;;;12.90
33267;BMP180;19638;49.080;11.896;2023-05-07T03:05:26;96319.00;;;12.80
33267;BMP180;19638;49.080;11.896;2023-05-07T03:09:31;96311.00;;;12.70
33267;BMP180;19638;49.080;11.896;2023-05-07T03:13:34;96310.00;;;12.70
33267;BMP180;19638;49.080;11.896;2023-05-07T03:17:37;96317.00;;;12.60
33267;BMP180;19638;49.080;11.896;2023-05-07T03:21:42;96310.00;;;12.60
33267;BMP180;19638;49.080;11.896;2023-05-07T03:25:46;96317.00;;;12.60
33267;BMP180;19638;49.080;11.896;2023-05-07T03:29:52;96310.00;;;12.50
33267;BMP180;19638;49.080;11.896;2023-05-07T03:33:56;96304.00;;;12.50
33267;BMP180;19638;49.080;11.896;2023-05-07T03:38:01;96298.00;;;12.40
33267;BMP180;19638;49.080;11.896;2023-05-07T03:42:06;96313.00;;;12.40
33267;BMP180;19638;49.080;11.896;2023-05-07T03:46:09;96314.00;;;12.40
33267;BMP180;19638;49.080;11.896;2023-05-07T03:50:15;96316.00;;;12.40
33267;BMP180;19638;49.080;11.896;2023-05-07T03:54:18;96323.00;;;12.50
33267;BMP180;19638;49.080;11.896;2023-05-07T03:58:23;96328.00;;;12.50
33267;BMP180;19638;49.080;11.896;2023-05-07T04:02:29;96329.00;;;12.50
33267;BMP180;19638;49.080;11.896;2023-05-07T04:06:35;96339.00;;;12.50
33267;BMP180;19638;49.080;11.896;2023-05-07T04:10:38;96342.00;;;12.50
33267;BMP180;19638;49.080;11.896;2023-05-07T04:14:46;96347.00;;;12.50
33267;BMP180;19638;49.080;11.896;2023-05-07T04:18:49;96352.00;;;12.60
33267;BMP180;19638;49.080;11.896;2023-05-07T04:22:54;96345.00;;;12.70
33267;BMP180;19638;49.080;11.896;2023-05-07T04:26:59;96349.00;;;12.80
33267;BMP180;19638;49.080;11.896;2023-05-07T04:31:04;96341.00;;;12.90
33267;BMP180;19638;49.080;11.896;2023-05-07T04:35:10;96341.00;;;13.00
33267;BMP180;19638;49.080;11.896;2023-05-07T04:39:13;96343.00;;;13.10
33267;BMP180;19638;49.080;11.896;2023-05-07T04:43:16;96337.00;;;13.20
33267;BMP180;19638;49.080;11.896;2023-05-07T04:47:23;96343.00;;;13.30
33267;BMP180;19638;49.080;11.896;2023-05-07T04:51:29;96343.00;;;13.50
33267;BMP180;19638;49.080;11.896;2023-05-07T04:55:34;96344.00;;;13.70
33267;BMP180;19638;49.080;11.896;2023-05-07T04:59:37;96350.00;;;13.80
33267;BMP180;19638;49.080;11.896;2023-05-07T05:03:41;96354.00;;;14.10
33267;BMP180;19638;49.080;11.896;2023-05-07T05:07:47;96356.00;;;14.30
33267;BMP180;19638;49.080;11.896;2023-05-07T05:11:50;96366.00;;;14.50
33267;BMP180;19638;49.080;11.896;2023-05-07T05:15:53;96375.00;;;14.60
33267;BMP180;19638;49.080;11.896;2023-05-07T05:20:00;96386.00;;;14.60
33267;BMP180;19638;49.080;11.896;2023-05-07T05:24:08;96379.00;;;14.70
33267;BMP180;19638;49.080;11.896;2023-05-07T05:28:14;96386.00;;;14.90
33267;BMP180;19638;49.080;11.896;2023-05-07T05:32:18;96370.00;;;15.10
33267;BMP180;19638;49.080;11.896;2023-05-07T05:36:23;96373.00;;;15.10
33267;BMP180;19638;49.080;11.896;2023-05-07T05:40:27;96380.00;;;15.10
33267;BMP180;19638;49.080;11.896;2023-05-07T05:44:34;96381.00;;;15.10
33267;BMP180;19638;49.080;11.896;2023-05-07T05:48:37;96377.00;;;15.00
33267;BMP180;19638;49.080;11.896;2023-05-07T05:52:43;96384.00;;;15.00
33267;BMP180;19638;49.080;11.896;2023-05-07T05:56:46;96382.00;;;15.10
33267;BMP180;19638;49.080;11.896;2023-05-07T06:00:51;96381.00;;;15.20
33267;BMP180;19638;49.080;11.896;2023-05-07T06:04:57;96381.00;;;15.20
33267;BMP180;19638;49.080;11.896;2023-05-07T06:09:05;96385.00;;;15.40
33267;BMP180;19638;49.080;11.896;2023-05-07T06:13:11;96394.00;;;15.70
33267;BMP180;19638;49.080;11.896;2023-05-07T06:17:14;96395.00;;;15.80
33267;BMP180;19638;49.080;11.896;2023-05-07T06:21:22;96405.00;;;16.10
33267;BMP180;19638;49.080;11.896;2023-05-07T06:25:27;96410.00;;;16.40
33267;BMP180;19638;49.080;11.896;2023-05-07T06:29:30;96421.00;;;16.50
33267;BMP180;19638;49.080;11.896;2023-05-07T06:33:37;96420.00;;;16.60
33267;BMP180;19638;49.080;11.896;2023-05-07T06:37:41;96423.00;;;16.50
33267;BMP180;19638;49.080;11.896;2023-05-07T06:41:46;96425.00;;;16.70
33267;BMP180;19638;49.080;11.896;2023-05-07T06:45:49;96430.00;;;16.90
33267;BMP180;19638;49.080;11.896;2023-05-07T06:49:57;96434.00;;;17.30
33267;BMP180;19638;49.080;11.896;2023-05-07T06:54:00;96437.00;;;17.70
33267;BMP180;19638;49.080;11.896;2023-05-07T06:58:09;96431.00;;;17.50
33267;BMP180;19638;49.080;11.896;2023-05-07T07:02:15;96429.00;;;17.50
33267;BMP180;19638;49.080;11.896;2023-05-07T07:06:21;96427.00;;;17.90
33267;BMP180;19638;49.080;11.896;2023-05-07T07:10:24;96430.00;;;18.30
33267;BMP180;19638;49.080;11.896;2023-05-07T07:14:29;96442.00;;;18.70
33267;BMP180;19638;49.080;11.896;2023-05-07T07:18:34;96435.00;;;18.80
33267;BMP180;19638;49.080;11.896;2023-05-07T07:22:37;96432.00;;;19.50
33267;BMP180;19638;49.080;11.896;2023-05-07T07:26:40;96431.00;;;19.70
33267;BMP180;19638;49.080;11.896;2023-05-07T07:30:45;96441.00;;;19.20
33267;BMP180;19638;49.080;11.896;2023-05-07T07:34:49;96434.00;;;19.10
33267;BMP180;19638;49.080;11.896;2023-05-07T07:38:53;96426.00;;;19.20
33267;BMP180;19638;49.080;11.896;2023-05-07T07:42:56;96442.00;;;19.20
33267;BMP180;19638;49.080;11.896;2023-05-07T07:47:05;96444.00;;;19.00
33267;BMP180;19638;49.080;11.896;2023-05-07T07:51:09;96441.00;;;18.80
33267;BMP180;19638;49.080;11.896;2023-05-07T07:55:15;96448.00;;;18.70
33267;BMP180;19638;49.080;11.896;2023-05-07T07:59:22;96446.00;;;19.70
33267;BMP180;19638;49.080;11.896;2023-05-07T08:03:27;96453.00;;;20.40
33267;BMP180;19638;49.080;11.896;2023-05-07T08:07:33;96452.00;;;20.90
33267;BMP180;19638;49.080;11.896;2023-05-07T08:11:36;96444.00;;;21.60
33267;BMP180;19638;49.080;11.896;2023-05-07T08:15:40;96439.00;;;22.10
33267;BMP180;19638;49.080;11.896;2023-05-07T08:19:44;96451.00;;;22.60
33267;BMP180;19638;49.080;11.896;2023-05-07T08:23:53;96458.00;;;23.50
33267;BMP180;19638;49.080;11.896;2023-05-07T08:27:56;96461.00;;;24.10
33267;BMP180;19638;49.080;11.896;2023-05-07T08:31:59;96473.00;;;24.50
33267;BMP180;19638;49.080;11.896;2023-05-07T08:36:04;96466.00;;;25.30
33267;BMP180;19638;49.080;11.896;2023-05-07T08:40:09;96466.00;;;24.90
33267;BMP180;19638;49.080;11.896;2023-05-07T08:44:16;96475.00;;;25.00
33267;BMP180;19638;49.080;11.896;2023-05-07T08:48:26;96469.00;;;24.40
33267;BMP180;19638;49.080;11.896;2023-05-07T08:52:33;96477.00;;;24.10
33267;BMP180;19638;49.080;11.896;2023-05-07T08:56:38;96487.00;;;24.10
33267;BMP180;19638;49.080;11.896;2023-05-07T09:00:45;96479.00;;;24.40
33267;BMP180;19638;49.080;11.896;2023-05-07T09:04:53;96471.00;;;24.50
33267;BMP180;19638;49.080;11.896;2023-05-07T09:08:58;96471.00;;;24.20
33267;BMP180;19638;49.080;11.896;2023-05-07T09:13:03;96473.00;;;24.10
33267;BMP180;19638;49.080;11.896;2023-05-07T09:17:07;96474.00;;;24.50
33267;BMP180;19638;49.080;11.896;2023-05-07T09:21:18;96486.00;;;25.80
33267;BMP180;19638;49.080;11.896;2023-05-07T09:25:29;96478.00;;;25.80
33267;BMP180;19638;49.080;11.896;2023-05-07T09:29:33;96479.00;;;25.60
33267;BMP180;19638;49.080;11.896;2023-05-07T09:33:37;96471.00;;;25.30
33267;BMP180;19638;49.080;11.896;2023-05-07T09:37:40;96471.00;;;25.50
33267;BMP180;19638;49.080;11.896;2023-05-07T09:41:46;96471.00;;;26.30
33267;BMP180;19638;49.080;11.896;2023-05-07T09:45:51;96463.00;;;27.10
33267;BMP180;19638;49.080;11.896;2023-05-07T09:49:58;96468.00;;;28.20
33267;BMP180;19638;49.080;11.896;2023-05-07T09:54:04;96464.00;;;28.80
33267;BMP180;19638;49.080;11.896;2023-05-07T09:58:12;96465.00;;;28.30
33267;BMP180;19638;49.080;11.896;2023-05-07T10:02:17;96463.00;;;27.90
33267;BMP180;19638;49.080;11.896;2023-05-07T10:06:24;96464.00;;;28.20
33267;BMP180;19638;49.080;11.896;2023-05-07T10:10:29;96462.00;;;28.60
33267;BMP180;19638;49.080;11.896;2023-05-07T10:14:35;96461.00;;;28.20
33267;BMP180;19638;49.080;11.896;2023-05-07T10:18:41;96475.00;;;28.60
33267;BMP180;19638;49.080;11.896;2023-05-07T10:22:47;96479.00;;;28.10
33267;BMP180;19638;49.080;11.896;2023-05-07T10:26:51;96483.00;;;27.50
33267;BMP180;19638;49.080;11.896;2023-05-07T10:31:04;96468.00;;;27.40
33267;BMP180;19638;49.080;11.896;2023-05-07T10:35:17;96473.00;;;26.80
33267;BMP180;19638;49.080;11.896;2023-05-07T10:39:23;96464.00;;;26.00
33267;BMP180;19638;49.080;11.896;2023-05-07T10:43:41;96455.00;;;27.00
33267;BMP180;19638;49.080;11.896;2023-05-07T10:48:07;96463.00;;;28.10
33267;BMP180;19638;49.080;11.896;2023-05-07T10:52:30;96451.00;;;29.00
33267;BMP180;19638;49.080;11.896;2023-05-07T10:56:33;96452.00;;;29.80
33267;BMP180;19638;49.080;11.896;2023-05-07T11:00:42;96451.00;;;31.30
33267;BMP180;19638;49.080;11.896;2023-05-07T11:05:20;96452.00;;;32.40
33267;BMP180;19638;49.080;11.896;2023-05-07T11:09:23;96462.00;;;32.50
33267;BMP180;19638;49.080;11.896;2023-05-07T11:13:43;96453.00;;;31.40
33267;BMP180;19638;49.080;11.896;2023-05-07T11:18:05;96458.00;;;30.20
33267;BMP180;19638;49.080;11.896;2023-05-07T11:22:38;96459.00;;;28.90
33267;BMP180;19638;49.080;11.896;2023-05-07T11:26:47;96446.00;;;27.80
33267;BMP180;19638;49.080;11.896;2023-05-07T11:30:50;96443.00;;;27.40
33267;BMP180;19638;49.080;11.896;2023-05-07T11:34:59;96445.00;;;26.80
33267;BMP180;19638;49.080;11.896;2023-05-07T11:39:04;96442.00;;;26.70
33267;BMP180;19638;49.080;11.896;2023-05-07T11:43:10;96439.00;;;27.00
33267;BMP180;19638;49.080;11.896;2023-05-07T11:47:20;96453.00;;;27.10
33267;BMP180;19638;49.080;11.896;2023-05-07T11:51:30;96444.00;;;26.60
33267;BMP180;19638;49.080;11.896;2023-05-07T11:55:37;96445.00;;;26.30
33267;BMP180;19638;49.080;11.896;2023-05-07T11:59:43;96441.00;;;26.40
33267;BMP180;19638;49.080;11.896;2023-05-07T12:03:52;96440.00;;;26.40
33267;BMP180;19638;49.080;11.896;2023-05-07T12:07:57;96443.00;;;26.50
33267;BMP180;19638;49.080;11.896;2023-05-07T12:12:05;96438.00;;;25.90
33267;BMP180;19638;49.080;11.896;2023-05-07T12:16:08;96441.00;;;26.00
33267;BMP180;19638;49.080;11.896;2023-05-07T12:20:14;96439.00;;;25.90
33267;BMP180;19638;49.080;11.896;2023-05-07T12:24:19;96439.00;;;26.10
33267;BMP180;19638;49.080;11.896;2023-05-07T12:28:24;96441.00;;;26.10
33267;BMP180;19638;49.080;11.896;2023-05-07T12:32:27;96441.00;;;26.10
33267;BMP180;19638;49.080;11.896;2023-05-07T12:36:36;96442.00;;;26.20
33267;BMP180;19638;49.080;11.896;2023-05-07T12:40:44;96440.00;;;26.00
33267;BMP180;19638;49.080;11.896;2023-05-07T12:44:52;96437.00;;;25.50
33267;BMP180;19638;49.080;11.896;2023-05-07T12:48:55;96428.00;;;25.20
33267;BMP180;19638;49.080;11.896;2023-05-07T12:53:15;96427.00;;;25.30
33267;BMP180;19638;49.080;11.896;2023-05-07T12:57:19;96423.00;;;25.50
33267;BMP180;19638;49.080;11.896;2023-05-07T13:01:28;96418.00;;;25.60
33267;BMP180;19638;49.080;11.896;2023-05-07T13:05:34;96412.00;;;25.70
33267;BMP180;19638;49.080;11.896;2023-05-07T13:09:37;96415.00;;;26.00
33267;BMP180;19638;49.080;11.896;2023-05-07T13:13:41;96418.00;;;26.10
33267;BMP180;19638;49.080;11.896;2023-05-07T13:17:46;96407.00;;;26.30
33267;BMP180;19638;49.080;11.896;2023-05-07T13:21:49;96401.00;;;26.80
33267;BMP180;19638;49.080;11.896;2023-05-07T13:25:52;96399.00;;;27.10
33267;BMP180;19638;49.080;11.896;2023-05-07T13:29:57;96395.00;;;27.00
33267;BMP180;19638;49.080;11.896;2023-05-07T13:34:02;96394.00;;;27.30
33267;BMP180;19638;49.080;11.896;2023-05-07T13:38:05;96387.00;;;27.50
33267;BMP180;19638;49.080;11.896;2023-05-07T13:42:11;96385.00;;;28.10
33267;BMP180;19638;49.080;11.896;2023-05-07T13:46:18;96371.00;;;28.30
33267;BMP180;19638;49.080;11.896;2023-05-07T13:50:23;96374.00;;;28.60
33267;BMP180;19638;49.080;11.896;2023-05-07T13:54:28;96379.00;;;28.30
33267;BMP180;19638;49.080;11.896;2023-05-07T13:58:31;96381.00;;;28.10
33267;BMP180;19638;49.080;11.896;2023-05-07T14:03:01;96378.00;;;28.20
33267;BMP180;19638;49.080;11.896;2023-05-07T14:07:08;96374.00;;;28.50
33267;BMP180;19638;49.080;11.896;2023-05-07T14:11:11;96376.00;;;28.90
33267;BMP180;19638;49.080;11.896;2023-05-07T14:15:19;96378.00;;;29.40
33267;BMP180;19638;49.080;11.896;2023-05-07T14:19:22;96386.00;;;28.90
33267;BMP180;19638;49.080;11.896;2023-05-07T14:23:27;96381.00;;;28.30
33267;BMP180;19638;49.080;11.896;2023-05-07T14:27:32;96382.00;;;27.80
33267;BMP180;19638;49.080;11.896;2023-05-07T14:31:35;96389.00;;;28.10
33267;BMP180;19638;49.080;11.896;2023-05-07T14:35:49;96386.00;;;28.00
33267;BMP180;19638;49.080;11.896;2023-05-07T14:39:53;96385.00;;;27.70
33267;BMP180;19638;49.080;11.896;2023-05-07T14:43:56;96385.00;;;27.60
33267;BMP180;19638;49.080;11.896;2023-05-07T14:48:02;96389.00;;;28.20
33267;BMP180;19638;49.080;11.896;2023-05-07T14:52:05;96389.00;;;28.30
33267;BMP180;19638;49.080;11.896;2023-05-07T14:56:17;96387.00;;;27.90
33267;BMP180;19638;49.080;11.896;2023-05-07T15:00:20;96387.00;;;27.60
33267;BMP180;19638;49.080;11.896;2023-05-07T15:04:29;96386.00;;;26.70
33267;BMP180;19638;49.080;11.896;2023-05-07T15:08:32;96400.00;;;26.00
33267;BMP180;19638;49.080;11.896;2023-05-07T15:12:38;96392.00;;;25.40
33267;BMP180;19638;49.080;11.896;2023-05-07T15:16:41;96396.00;;;25.40
33267;BMP180;19638;49.080;11.896;2023-05-07T15:20:45;96387.00;;;25.20
33267;BMP180;19638;49.080;11.896;2023-05-07T15:24:48;96385.00;;;25.10
33267;BMP180;19638;49.080;11.896;2023-05-07T15:29:01;96384.00;;;25.30
33267;BMP180;19638;49.080;11.896;2023-05-07T15:33:09;96381.00;;;25.30
33267;BMP180;19638;49.080;11.896;2023-05-07T15:37:12;96384.00;;;25.40
33267;BMP180;19638;49.080;11.896;2023-05-07T15:41:18;96387.00;;;25.10
33267;BMP180;19638;49.080;11.896;2023-05-07T15:45:24;96379.00;;;24.80
33267;BMP180;19638;49.080;11.896;2023-05-07T15:49:32;96393.00;;;24.70
33267;BMP180;19638;49.080;11.896;2023-05-07T15:53:35;96393.00;;;24.40
33267;BMP180;19638;49.080;11.896;2023-05-07T15:57:38;96392.00;;;24.20
33267;BMP180;19638;49.080;11.896;2023-05-07T16:01:42;96394.00;;;24.00
33267;BMP180;19638;49.080;11.896;2023-05-07T16:05:50;96412.00;;;23.70
33267;BMP180;19638;49.080;11.896;2023-05-07T16:09:53;96403.00;;;23.40
33267;BMP180;19638;49.080;11.896;2023-05-07T16:13:58;96402.00;;;23.20
33267;BMP180;19638;49.080;11.896;2023-05-07T16:18:04;96409.00;;;23.10
33267;BMP180;19638;49.080;11.896;2023-05-07T16:22:10;96407.00;;;23.10
33267;BMP180;19638;49.080;11.896;2023-05-07T16:26:19;96421.00;;;23.00
33267;BMP180;19638;49.080;11.896;2023-05-07T16:30:23;96413.00;;;22.80
33267;BMP180;19638;49.080;11.896;2023-05-07T16:34:27;96409.00;;;22.80
33267;BMP180;19638;49.080;11.896;2023-05-07T16:38:33;96402.00;;;22.90
33267;BMP180;19638;49.080;11.896;2023-05-07T16:42:36;96404.00;;;23.20
33267;BMP180;19638;49.080;11.896;2023-05-07T16:46:39;96418.00;;;23.20
33267;BMP180;19638;49.080;11.896;2023-05-07T16:50:44;96417.00;;;23.20
33267;BMP180;19638;49.080;11.896;2023-05-07T16:54:50;96421.00;;;23.10
33267;BMP180;19638;49.080;11.896;2023-05-07T16:58:54;96418.00;;;22.90
33267;BMP180;19638;49.080;11.896;2023-05-07T17:02:57;96423.00;;;22.70
33267;BMP180;19638;49.080;11.896;2023-05-07T17:07:01;96420.00;;;22.40
33267;BMP180;19638;49.080;11.896;2023-05-07T17:11:06;96437.00;;;22.20
33267;BMP180;19638;49.080;11.896;2023-05-07T17:15:10;96442.00;;;22.10
33267;BMP180;19638;49.080;11.896;2023-05-07T17:19:16;96446.00;;;21.80
33267;BMP180;19638;49.080;11.896;2023-05-07T17:23:20;96456.00;;;21.50
33267;BMP180;19638;49.080;11.896;2023-05-07T17:27:27;96448.00;;;21.20
33267;BMP180;19638;49.080;11.896;2023-05-07T17:31:33;96463.00;;;21.00
33267;BMP180;19638;49.080;11.896;2023-05-07T17:35:36;96457.00;;;20.70
33267;BMP180;19638;49.080;11.896;2023-05-07T17:39:41;96460.00;;;20.50
33267;BMP180;19638;49.080;11.896;2023-05-07T17:43:45;96465.00;;;20.30
33267;BMP180;19638;49.080;11.896;2023-05-07T17:47:47;96463.00;;;20.10
33267;BMP180;19638;49.080;11.896;2023-05-07T17:51:53;96473.00;;;20.00
33267;BMP180;19638;49.080;11.896;2023-05-07T17:56:01;96468.00;;;19.80
33267;BMP180;19638;49.080;11.896;2023-05-07T18:00:06;96476.00;;;19.70
33267;BMP180;19638;49.080;11.896;2023-05-07T18:04:11;96488.00;;;19.60
33267;BMP180;19638;49.080;11.896;2023-05-07T18:08:16;96485.00;;;19.40
33267;BMP180;19638;49.080;11.896;2023-05-07T18:12:23;96488.00;;;19.30
33267;BMP180;19638;49.080;11.896;2023-05-07T18:16:28;96493.00;;;19.10
33267;BMP180;19638;49.080;11.896;2023-05-07T18:20:31;96498.00;;;19.00
33267;BMP180;19638;49.080;11.896;2023-05-07T18:24:34;96498.00;;;18.80
33267;BMP180;19638;49.080;11.896;2023-05-07T18:28:43;96510.00;;;18.60
33267;BMP180;19638;49.080;11.896;2023-05-07T18:32:48;96510.00;;;18.50
33267;BMP180;19638;49.080;11.896;2023-05-07T18:36:51;96517.00;;;18.30
33267;BMP180;19638;49.080;11.896;2023-05-07T18:40:59;96511.00;;;18.10
33267;BMP180;19638;49.080;11.896;2023-05-07T18:45:07;96517.00;;;17.90
33267;BMP180;19638;49.080;11.896;2023-05-07T18:49:10;96521.00;;;17.80
33267;BMP180;19638;49.080;11.896;2023-05-07T18:53:21;96528.00;;;17.70
33267;BMP180;19638;49.080;11.896;2023-05-07T18:57:24;96515.00;;;17.50
33267;BMP180;19638;49.080;11.896;2023-05-07T19:01:31;96517.00;;;17.40
33267;BMP180;19638;49.080;11.896;2023-05-07T19:05:38;96532.00;;;17.30
33267;BMP180;19638;49.080;11.896;2023-05-07T19:09:42;96534.00;;;17.20
33267;BMP180;19638;49.080;11.896;2023-05-07T19:14:04;96533.00;;;17.10
33267;BMP180;19638;49.080;11.896;2023-05-07T19:18:09;96542.00;;;17.00
33267;BMP180;19638;49.080;11.896;2023-05-07T19:22:16;96540.00;;;16.90
33267;BMP180;19638;49.080;11.896;2023-05-07T19:26:22;96547.00;;;16.80
33267;BMP180;19638;49.080;11.896;2023-05-07T19:30:25;96549.00;;;16.70
33267;BMP180;19638;49.080;11.896;2023-05-07T19:34:32;96550.00;;;16.70
33267;BMP180;19638;49.080;11.896;2023-05-07T19:38:39;96549.00;;;16.60
33267;BMP180;19638;49.080;11.896;2023-05-07T19:42:42;96560.00;;;16.50
33267;BMP180;19638;49.080;11.896;2023-05-07T19:46:45;96564.00;;;16.50
33267;BMP180;19638;49.080;11.896;2023-05-07T19:50:50;96571.00;;;16.40
33267;BMP180;19638;49.080;11.896;2023-05-07T19:54:55;96570.00;;;16.40
33267;BMP180;19638;49.080;11.896;2023-05-07T19:59:01;96571.00;;;16.30
33267;BMP180;19638;49.080;11.896;2023-05-07T20:03:04;96580.00;;;16.20
33267;BMP180;19638;49.080;11.896;2023-05-07T20:07:11;96569.00;;;16.20
33267;BMP180;19638;49.080;11.896;2023-05-07T20:11:19;96584.00;;;16.10
33267;BMP180;19638;49.080;11.896;2023-05-07T20:15:25;96582.00;;;16.10
33267;BMP180;19638;49.080;11.896;2023-05-07T20:19:28;96586.00;;;16.00
33267;BMP180;19638;49.080;11.896;2023-05-07T20:23:35;96590.00;;;15.90
33267;BMP180;19638;49.080;11.896;2023-05-07T20:27:40;96594.00;;;15.90
33267;BMP180;19638;49.080;11.896;2023-05-07T20:31:43;96595.00;;;15.80
33267;BMP180;19638;49.080;11.896;2023-05-07T20:35:48;96591.00;;;15.70
33267;BMP180;19638;49.080;11.896;2023-05-07T20:39:54;96599.00;;;15.70
33267;BMP180;19638;49.080;11.896;2023-05-07T20:43:58;96593.00;;;15.60
33267;BMP180;19638;49.080;11.896;2023-05-07T20:48:02;96600.00;;;15.50
33267;BMP180;19638;49.080;11.896;2023-05-07T20:52:06;96602.00;;;15.50
33267;BMP180;19638;49.080;11.896;2023-05-07T20:56:11;96602.00;;;15.40
33267;BMP180;19638;49.080;11.896;2023-05-07T21:00:17;96602.00;;;15.40
33267;BMP180;19638;49.080;11.896;2023-05-07T21:04:22;96619.00;;;15.30
33267;BMP180;19638;49.080;11.896;2023-05-07T21:08:27;96619.00;;;15.30
33267;BMP180;19638;49.080;11.896;2023-05-07T21:12:31;96612.00;;;15.20
33267;BMP180;19638;49.080;11.896;2023-05-07T21:16:35;96623.00;;;15.20
33267;BMP180;19638;49.080;11.896;2023-05-07T21:20:41;96628.00;;;15.10
33267;BMP180;19638;49.080;11.896;2023-05-07T21:24:46;96618.00;;;15.00
33267;BMP180;19638;49.080;11.896;2023-05-07T21:28:51;96622.00;;;15.00
33267;BMP180;19638;49.080;11.896;2023-05-07T21:32:57;96625.00;;;14.90
33267;BMP180;19638;49.080;11.896;2023-05-07T21:37:00;96640.00;;;14.90
33267;BMP180;19638;49.080;11.896;2023-05-07T21:41:06;96638.00;;;14.80
33267;BMP180;19638;49.080;11.896;2023-05-07T21:45:12;96638.00;;;14.70
33267;BMP180;19638;49.080;11.896;2023-05-07T21:49:19;96646.00;;;14.70
33267;BMP180;19638;49.080;11.896;2023-05-07T21:53:24;96646.00;;;14.60
33267;BMP180;19638;49.080;11.896;2023-05-07T21:57:30;96636.00;;;14.50
33267;BMP180;19638;49.080;11.896;2023-05-07T22:01:37;96638.00;;;14.40
33267;BMP180;19638;49.080;11.896;2023-05-07T22:05:40;96642.00;;;14.40
33267;BMP180;19638;49.080;11.896;2023-05-07T22:09:44;96643.00;;;14.30
33267;BMP180;19638;49.080;11.896;2023-05-07T22:13:49;96644.00;;;14.30
33267;BMP180;19638;49.080;11.896;2023-05-07T22:17:58;96659.00;;;14.20
33267;BMP180;19638;49.080;11.896;2023-05-07T22:22:01;96645.00;;;14.20
33267;BMP180;19638;49.080;11.896;2023-05-07T22:26:09;96651.00;;;14.10
33267;BMP180;19638;49.080;11.896;2023-05-07T22:30:12;96657.00;;;14.10
33267;BMP180;19638;49.080;11.896;2023-05-07T22:34:20;96659.00;;;14.00
33267;BMP180;19638;49.080;11.896;2023-05-07T22:38:23;96659.00;;;13.90
33267;BMP180;19638;49.080;11.896;2023-05-07T22:42:27;96652.00;;;13.80
33267;BMP180;19638;49.080;11.896;2023-05-07T22:46:33;96659.00;;;13.80
33267;BMP180;19638;49.080;11.896;2023-05-07T22:50:40;96652.00;;;13.70
33267;BMP180;19638;49.080;11.896;2023-05-07T22:54:43;96653.00;;;13.70
33267;BMP180;19638;49.080;11.896;2023-05-07T22:58:46;96651.00;;;13.60
33267;BMP180;19638;49.080;11.896;2023-05-07T23:02:50;96654.00;;;13.60
33267;BMP180;19638;49.080;11.896;2023-05-07T23:06:58;96651.00;;;13.50
33267;BMP180;19638;49.080;11.896;2023-05-07T23:11:01;96651.00;;;13.40
33267;BMP180;19638;49.080;11.896;2023-05-07T23:15:05;96650.00;;;13.40
33267;BMP180;19638;49.080;11.896;2023-05-07T23:19:08;96657.00;;;13.30
33267;BMP180;19638;49.080;11.896;2023-05-07T23:23:15;96652.00;;;13.30